Time;durP1;ratioP1;P1;durP2;ratioP2;P2;SDS_P1;SDS_P2;PMS_P1;PMS_P2;Temp;Humidity;BMP_temperature;BMP_pressure;BME280_temperature;BME280_humidity;BME280_pressure;Samples;Min_cycle;Max_cycle;Signal;HPM_P1;HPM_P2
2021/12/31 00:00:08;;;;;;;5.57;4.63;;;;;;;;;;4994219;28;20200;-82
2021/12/31 00:02:35;;;;;;;5.57;5.07;;;;;;;;;;4994477;28;20623;-81
2021/12/31 00:05:04;;;;;;;5.47;4.60;;;;;;;;;;4994095;28;20673;-82
2021/12/31 00:07:33;;;;;;;4.37;3.87;;;;;;;;;;4993894;28;20282;-81
2021/12/31 00:10:01;;;;;;;4.10;3.70;;;;;;;;;;4993958;28;20200;-81
2021/12/31 00:12:28;;;;;;;3.50;3.20;;;;;;;;;;4993937;28;20665;-81
2021/12/31 00:14:56;;;;;;;13.50;10.03;;;;;;;;;;4993686;28;20299;-82
2021/12/31 00:17:24;;;;;;;4.90;4.40;;;;;;;;;;4993902;28;20247;-82
2021/12/31 00:20:00;;;;;;;4.07;3.37;;;;;;;;;;4993760;28;20242;-81
2021/12/31 00:22:55;;;;;;;3.03;2.73;;;;;;;;;;4993819;28;20195;-81
2021/12/31 00:25:25;;;;;;;3.97;3.63;;;;;;;;;;4994130;28;20635;-81
2021/12/31 00:27:52;;;;;;;6.07;4.80;;;;;;;;;;4993974;28;20207;-81
2021/12/31 00:30:19;;;;;;;12.53;9.80;;;;;;;;;;4993569;28;20235;-81
2021/12/31 00:32:49;;;;;;;14.67;11.43;;;;;;;;;;4993502;28;20220;-82
2021/12/31 00:35:16;;;;;;;6.17;4.30;;;;;;;;;;4993082;28;20281;-82
2021/12/31 00:37:44;;;;;;;3.60;3.30;;;;;;;;;;4993540;28;20619;-82
2021/12/31 00:40:14;;;;;;;3.57;3.27;;;;;;;;;;4993710;28;20254;-82
2021/12/31 00:42:44;;;;;;;11.60;6.13;;;;;;;;;;4993722;28;20231;-82
2021/12/31 00:45:14;;;;;;;94.57;38.63;;;;;;;;;;4993674;28;20262;-82
2021/12/31 00:47:41;;;;;;;44.50;21.30;;;;;;;;;;4993349;28;20204;-81
2021/12/31 00:50:10;;;;;;;23.90;10.80;;;;;;;;;;4993540;28;20208;-82
2021/12/31 00:52:37;;;;;;;6.17;4.13;;;;;;;;;;4993170;28;20200;-83
2021/12/31 00:55:06;;;;;;;14.23;9.90;;;;;;;;;;4993187;28;20254;-82
2021/12/31 00:57:33;;;;;;;19.67;12.37;;;;;;;;;;4993440;28;20211;-82
2021/12/31 01:00:03;;;;;;;4.83;4.10;;;;;;;;;;4993117;28;20204;-81
2021/12/31 01:02:30;;;;;;;5.53;3.07;;;;;;;;;;4993244;28;20211;-82
2021/12/31 01:04:58;;;;;;;3.70;2.40;;;;;;;;;;4993068;28;20579;-82
2021/12/31 01:07:27;;;;;;;2.60;2.40;;;;;;;;;;4992990;28;20618;-81
2021/12/31 01:09:56;;;;;;;48.53;27.77;;;;;;;;;;4992439;28;20200;-83
2021/12/31 01:12:25;;;;;;;30.27;19.77;;;;;;;;;;4992925;28;20204;-82
2021/12/31 01:15:00;;;;;;;8.27;6.70;;;;;;;;;;4993126;28;20647;-82
2021/12/31 01:20:21;;;;;;;11.33;8.40;;;;;;;;;;4982601;28;20197;-81
2021/12/31 01:22:49;;;;;;;7.20;6.10;;;;;;;;;;4992833;28;20215;-82
2021/12/31 01:25:16;;;;;;;3.53;3.23;;;;;;;;;;4992862;28;20262;-82
2021/12/31 01:27:44;;;;;;;4.13;3.17;;;;;;;;;;4992728;28;20255;-81
2021/12/31 01:30:16;;;;;;;3.43;3.13;;;;;;;;;;4992746;28;20235;-82
2021/12/31 01:32:45;;;;;;;6.50;3.27;;;;;;;;;;4992858;28;20216;-82
2021/12/31 01:35:13;;;;;;;3.13;2.83;;;;;;;;;;4992737;28;20193;-82
2021/12/31 01:37:41;;;;;;;2.17;1.97;;;;;;;;;;4992658;28;20291;-80
2021/12/31 01:40:10;;;;;;;4.10;3.70;;;;;;;;;;4992631;28;20292;-79
2021/12/31 01:42:40;;;;;;;2.90;2.70;;;;;;;;;;4992591;28;20291;-82
2021/12/31 01:45:14;;;;;;;2.73;2.37;;;;;;;;;;4992960;28;20200;-82
2021/12/31 01:50:29;;;;;;;2.57;2.37;;;;;;;;;;4993088;28;20204;-80
2021/12/31 01:52:57;;;;;;;1.87;1.73;;;;;;;;;;4996422;28;20188;-80
2021/12/31 01:55:26;;;;;;;2.37;1.90;;;;;;;;;;4996528;28;20196;-82
2021/12/31 01:57:56;;;;;;;2.13;1.97;;;;;;;;;;4996449;28;20211;-80
2021/12/31 02:00:24;;;;;;;2.87;2.43;;;;;;;;;;4996423;28;20228;-82
2021/12/31 02:02:52;;;;;;;2.00;1.90;;;;;;;;;;4996360;28;20200;-82
2021/12/31 02:05:19;;;;;;;2.00;1.90;;;;;;;;;;4996409;28;20231;-82
2021/12/31 02:07:48;;;;;;;1.90;1.80;;;;;;;;;;4995785;28;20228;-82
2021/12/31 02:10:15;;;;;;;1.90;1.77;;;;;;;;;;4996426;28;20208;-82
2021/12/31 02:12:46;;;;;;;2.07;1.83;;;;;;;;;;4996169;28;20603;-82
2021/12/31 02:15:14;;;;;;;3.20;2.10;;;;;;;;;;4996124;28;20215;-82
2021/12/31 02:17:44;;;;;;;2.30;2.17;;;;;;;;;;4996139;28;20196;-82
2021/12/31 02:20:14;;;;;;;3.13;2.17;;;;;;;;;;4996092;28;20200;-82
2021/12/31 02:22:52;;;;;;;2.67;2.47;;;;;;;;;;4996186;28;20196;-82
2021/12/31 02:25:22;;;;;;;2.87;2.47;;;;;;;;;;4978933;28;20267;-82
2021/12/31 02:27:50;;;;;;;2.30;2.10;;;;;;;;;;4995961;28;20196;-83
2021/12/31 02:30:17;;;;;;;2.17;1.73;;;;;;;;;;4995982;28;20208;-82
2021/12/31 02:32:45;;;;;;;1.93;1.83;;;;;;;;;;4995739;28;20235;-83
2021/12/31 02:35:14;;;;;;;2.43;2.23;;;;;;;;;;4995836;28;20615;-82
2021/12/31 02:37:42;;;;;;;1.93;1.83;;;;;;;;;;4995827;28;20200;-83
2021/12/31 02:40:15;;;;;;;2.03;1.93;;;;;;;;;;4995946;28;20299;-83
2021/12/31 02:42:43;;;;;;;2.33;2.13;;;;;;;;;;4995713;28;20189;-83
2021/12/31 02:45:11;;;;;;;3.23;2.53;;;;;;;;;;4995585;28;20203;-83
2021/12/31 02:47:43;;;;;;;2.53;2.33;;;;;;;;;;4995825;28;20204;-83
2021/12/31 02:50:12;;;;;;;2.50;2.00;;;;;;;;;;4995695;28;20181;-83
2021/12/31 02:52:41;;;;;;;6.10;3.97;;;;;;;;;;4995721;28;20196;-83
2021/12/31 02:55:10;;;;;;;6.33;4.23;;;;;;;;;;4995293;28;20236;-83
2021/12/31 02:57:39;;;;;;;3.87;3.43;;;;;;;;;;4995096;28;20255;-83
2021/12/31 03:00:09;;;;;;;2.27;2.17;;;;;;;;;;4995340;28;20204;-82
2021/12/31 03:02:38;;;;;;;2.57;2.30;;;;;;;;;;4995412;28;20208;-82
2021/12/31 03:05:07;;;;;;;2.30;2.10;;;;;;;;;;4995187;28;20203;-82
2021/12/31 03:07:35;;;;;;;2.23;2.03;;;;;;;;;;4995105;28;20235;-82
2021/12/31 03:10:06;;;;;;;13.07;11.77;;;;;;;;;;4995110;28;20283;-82
2021/12/31 03:12:33;;;;;;;17.50;13.43;;;;;;;;;;4995311;28;20192;-82
2021/12/31 03:15:01;;;;;;;44.00;33.07;;;;;;;;;;4994978;28;20228;-82
2021/12/31 03:17:28;;;;;;;40.20;30.33;;;;;;;;;;4988297;28;20665;-82
2021/12/31 03:20:08;;;;;;;25.77;22.60;;;;;;;;;;4995320;28;20291;-82
2021/12/31 03:22:35;;;;;;;27.40;20.00;;;;;;;;;;4994836;28;20276;-82
2021/12/31 03:25:05;;;;;;;24.17;17.80;;;;;;;;;;4994853;28;20196;-82
2021/12/31 03:27:33;;;;;;;38.50;25.97;;;;;;;;;;4994859;28;20192;-82
2021/12/31 03:30:00;;;;;;;39.77;30.97;;;;;;;;;;4994734;28;20200;-82
2021/12/31 03:32:28;;;;;;;17.17;13.53;;;;;;;;;;4994691;28;20200;-82
2021/12/31 03:34:55;;;;;;;7.10;6.10;;;;;;;;;;4994276;28;20231;-81
2021/12/31 03:37:22;;;;;;;14.23;9.93;;;;;;;;;;4994870;28;20267;-82
2021/12/31 03:39:50;;;;;;;8.13;6.67;;;;;;;;;;4994592;28;20197;-82
2021/12/31 03:42:19;;;;;;;6.50;5.83;;;;;;;;;;4977042;28;20235;-82
2021/12/31 03:44:46;;;;;;;15.00;9.37;;;;;;;;;;4994555;28;20642;-82
2021/12/31 03:47:14;;;;;;;7.03;6.00;;;;;;;;;;4994406;28;20204;-82
2021/12/31 03:49:42;;;;;;;14.13;10.80;;;;;;;;;;4994303;28;20204;-82
2021/12/31 03:52:09;;;;;;;24.40;16.93;;;;;;;;;;4994333;28;20295;-82
2021/12/31 03:54:36;;;;;;;22.67;14.47;;;;;;;;;;4994174;28;20228;-82
2021/12/31 03:57:04;;;;;;;14.83;9.57;;;;;;;;;;4994308;28;20740;-82
2021/12/31 03:59:33;;;;;;;7.07;4.70;;;;;;;;;;4994440;28;20299;-82
2021/12/31 04:02:00;;;;;;;2.87;2.67;;;;;;;;;;4994045;28;20207;-82
2021/12/31 04:04:28;;;;;;;2.13;2.03;;;;;;;;;;4994087;28;20200;-82
2021/12/31 04:06:55;;;;;;;2.77;2.27;;;;;;;;;;4993803;28;20247;-83
2021/12/31 04:09:23;;;;;;;3.20;2.57;;;;;;;;;;4993935;28;20283;-83
2021/12/31 04:11:51;;;;;;;2.37;2.17;;;;;;;;;;4994294;28;20204;-82
2021/12/31 04:14:19;;;;;;;2.87;2.33;;;;;;;;;;4993827;28;20658;-82
2021/12/31 04:16:48;;;;;;;13.13;10.60;;;;;;;;;;4993934;28;20283;-82
2021/12/31 04:19:15;;;;;;;5.60;4.33;;;;;;;;;;4994025;28;20236;-82
2021/12/31 04:21:44;;;;;;;4.33;3.60;;;;;;;;;;4993785;28;20731;-82
2021/12/31 04:24:26;;;;;;;3.23;2.70;;;;;;;;;;4993633;28;20637;-82
2021/12/31 04:26:54;;;;;;;2.20;1.93;;;;;;;;;;4993683;28;20189;-82
2021/12/31 04:29:24;;;;;;;2.23;2.03;;;;;;;;;;4993338;28;20635;-83
2021/12/31 04:31:53;;;;;;;2.20;2.00;;;;;;;;;;4993849;28;20200;-83
2021/12/31 04:34:20;;;;;;;1.90;1.80;;;;;;;;;;4993796;28;20228;-83
2021/12/31 04:36:48;;;;;;;2.30;2.13;;;;;;;;;;4993478;28;20231;-82
2021/12/31 04:39:15;;;;;;;2.10;2.00;;;;;;;;;;4993873;28;20282;-83
2021/12/31 04:41:43;;;;;;;1.83;1.73;;;;;;;;;;4993279;28;20200;-82
2021/12/31 04:44:10;;;;;;;2.50;2.10;;;;;;;;;;4993534;28;20196;-82
2021/12/31 04:46:37;;;;;;;2.20;1.97;;;;;;;;;;4993352;28;20235;-82
2021/12/31 04:49:07;;;;;;;2.30;2.00;;;;;;;;;;4993601;28;20200;-82
2021/12/31 04:51:34;;;;;;;1.90;1.80;;;;;;;;;;4993468;28;20204;-82
2021/12/31 04:54:02;;;;;;;2.50;2.30;;;;;;;;;;4979312;28;20219;-82
2021/12/31 04:56:30;;;;;;;2.20;2.00;;;;;;;;;;4973846;28;20232;-82
2021/12/31 04:58:57;;;;;;;2.40;2.20;;;;;;;;;;4973723;28;20244;-82
2021/12/31 05:01:27;;;;;;;2.20;2.10;;;;;;;;;;4973701;28;20382;-82
2021/12/31 05:03:55;;;;;;;2.60;2.40;;;;;;;;;;4973542;28;20217;-82
2021/12/31 05:06:24;;;;;;;9.57;8.57;;;;;;;;;;4973452;28;20796;-82
2021/12/31 05:08:51;;;;;;;16.17;13.00;;;;;;;;;;4973627;28;20220;-82
2021/12/31 05:11:18;;;;;;;6.10;5.50;;;;;;;;;;4973599;28;20297;-82
2021/12/31 05:13:46;;;;;;;3.30;2.90;;;;;;;;;;4973853;28;20232;-82
2021/12/31 05:16:13;;;;;;;3.17;2.87;;;;;;;;;;4973502;28;20225;-82
2021/12/31 05:18:41;;;;;;;4.47;2.20;;;;;;;;;;4973805;28;20197;-82
2021/12/31 05:21:08;;;;;;;3.63;3.13;;;;;;;;;;4973276;28;20307;-82
2021/12/31 05:23:37;;;;;;;4.87;4.40;;;;;;;;;;4973388;28;20204;-82
2021/12/31 05:26:05;;;;;;;11.43;9.33;;;;;;;;;;4973297;28;20252;-83
2021/12/31 05:28:33;;;;;;;9.97;7.47;;;;;;;;;;4956194;28;20292;-82
2021/12/31 05:31:00;;;;;;;7.83;7.03;;;;;;;;;;4972846;28;20204;-82
2021/12/31 05:33:28;;;;;;;8.63;7.80;;;;;;;;;;4973332;28;20235;-83
2021/12/31 05:35:58;;;;;;;43.77;39.10;;;;;;;;;;4973028;28;20232;-82
2021/12/31 05:38:28;;;;;;;19.70;17.63;;;;;;;;;;4973365;28;20201;-82
2021/12/31 05:40:57;;;;;;;9.47;8.53;;;;;;;;;;4973176;28;20204;-82
2021/12/31 05:43:25;;;;;;;9.63;8.83;;;;;;;;;;4973183;28;20208;-82
2021/12/31 05:45:52;;;;;;;5.00;4.60;;;;;;;;;;4973049;28;20204;-81
2021/12/31 05:48:19;;;;;;;22.27;18.47;;;;;;;;;;4972855;28;20641;-81
2021/12/31 05:50:47;;;;;;;9.83;8.83;;;;;;;;;;4973128;28;20208;-81
2021/12/31 05:53:14;;;;;;;5.17;4.37;;;;;;;;;;4973171;28;20291;-81
2021/12/31 05:55:41;;;;;;;4.87;4.47;;;;;;;;;;4973016;28;20229;-81
2021/12/31 05:58:10;;;;;;;4.73;4.23;;;;;;;;;;4973064;28;20212;-81
2021/12/31 06:00:38;;;;;;;4.60;4.20;;;;;;;;;;4955692;28;20263;-81
2021/12/31 06:03:05;;;;;;;4.70;4.20;;;;;;;;;;4973208;28;20209;-82
2021/12/31 06:05:33;;;;;;;3.77;3.33;;;;;;;;;;4973121;28;20263;-81
2021/12/31 06:08:00;;;;;;;2.73;2.53;;;;;;;;;;4971987;28;20654;-81
2021/12/31 06:10:28;;;;;;;2.53;2.33;;;;;;;;;;4972176;28;20248;-83
2021/12/31 06:12:58;;;;;;;2.17;2.03;;;;;;;;;;4971933;28;20264;-82
2021/12/31 06:15:28;;;;;;;2.10;2.00;;;;;;;;;;4971765;28;20217;-83
2021/12/31 06:17:55;;;;;;;2.47;2.00;;;;;;;;;;4971727;28;20213;-83
2021/12/31 06:20:24;;;;;;;7.03;6.17;;;;;;;;;;4972000;28;20208;-84
2021/12/31 06:22:51;;;;;;;5.60;3.90;;;;;;;;;;4971396;28;20240;-83
2021/12/31 06:25:18;;;;;;;4.23;3.77;;;;;;;;;;4971977;28;20689;-83
2021/12/31 06:27:46;;;;;;;8.30;6.73;;;;;;;;;;4971900;28;20725;-83
2021/12/31 06:30:13;;;;;;;8.27;6.50;;;;;;;;;;4971701;28;20197;-82
2021/12/31 06:32:42;;;;;;;7.43;6.10;;;;;;;;;;4971930;28;20654;-83
2021/12/31 06:35:10;;;;;;;7.40;4.50;;;;;;;;;;4974770;28;20319;-83
2021/12/31 06:37:37;;;;;;;22.93;15.63;;;;;;;;;;4975171;28;20259;-83
2021/12/31 06:40:07;;;;;;;22.97;16.00;;;;;;;;;;4975165;28;20716;-83
2021/12/31 06:42:36;;;;;;;19.67;17.03;;;;;;;;;;4975383;28;20215;-83
2021/12/31 06:45:04;;;;;;;28.67;25.47;;;;;;;;;;4975467;28;20205;-83
2021/12/31 06:47:31;;;;;;;20.47;18.37;;;;;;;;;;4974756;28;20197;-83
2021/12/31 06:50:00;;;;;;;9.57;8.57;;;;;;;;;;4987981;28;20208;-84
2021/12/31 06:52:27;;;;;;;5.13;4.17;;;;;;;;;;4994564;28;20206;-85
2021/12/31 06:54:55;;;;;;;5.33;4.83;;;;;;;;;;4993849;28;20730;-84
2021/12/31 06:57:22;;;;;;;20.47;15.87;;;;;;;;;;4994219;28;20597;-83
2021/12/31 06:59:49;;;;;;;25.27;22.53;;;;;;;;;;4994336;28;20218;-85
2021/12/31 07:02:17;;;;;;;177.40;111.03;;;;;;;;;;4993804;28;20200;-84
2021/12/31 07:04:44;;;;;;;76.10;47.40;;;;;;;;;;4994078;28;20236;-83
2021/12/31 07:07:13;;;;;;;149.23;97.07;;;;;;;;;;4994106;28;20735;-88
2021/12/31 07:09:41;;;;;;;80.30;55.40;;;;;;;;;;4994052;28;20204;-85
2021/12/31 07:12:09;;;;;;;80.90;55.90;;;;;;;;;;4994070;28;20196;-84
2021/12/31 07:14:36;;;;;;;52.50;38.30;;;;;;;;;;4993841;28;20207;-85
2021/12/31 07:17:04;;;;;;;45.60;33.90;;;;;;;;;;4993855;28;20196;-82
2021/12/31 07:19:32;;;;;;;79.80;53.57;;;;;;;;;;4993761;28;20220;-83
2021/12/31 07:22:00;;;;;;;43.63;34.67;;;;;;;;;;4993670;28;20204;-80
2021/12/31 07:24:29;;;;;;;41.50;25.40;;;;;;;;;;4993760;28;20200;-80
2021/12/31 07:26:57;;;;;;;26.70;20.33;;;;;;;;;;4993583;28;20329;-82
2021/12/31 07:29:24;;;;;;;11.03;9.90;;;;;;;;;;4993752;28;20192;-81
2021/12/31 07:31:51;;;;;;;6.20;5.60;;;;;;;;;;4993314;28;20762;-81
2021/12/31 07:34:18;;;;;;;68.90;45.80;;;;;;;;;;4993606;28;20239;-81
2021/12/31 07:36:47;;;;;;;49.13;36.83;;;;;;;;;;4993598;28;20231;-81
2021/12/31 07:39:14;;;;;;;49.90;35.77;;;;;;;;;;4993363;28;20209;-80
2021/12/31 07:41:43;;;;;;;32.43;27.07;;;;;;;;;;4992703;28;20200;-81
2021/12/31 07:44:11;;;;;;;42.63;29.40;;;;;;;;;;4993050;28;20259;-81
2021/12/31 07:46:38;;;;;;;32.80;24.73;;;;;;;;;;4993193;28;20235;-81
2021/12/31 07:49:05;;;;;;;23.10;20.47;;;;;;;;;;4993147;28;20200;-81
2021/12/31 07:51:33;;;;;;;23.50;19.60;;;;;;;;;;4993369;28;20295;-80
2021/12/31 07:54:00;;;;;;;15.37;13.77;;;;;;;;;;4992821;28;20204;-81
2021/12/31 07:56:28;;;;;;;22.00;18.37;;;;;;;;;;4993155;28;20726;-82
2021/12/31 07:58:57;;;;;;;70.67;49.03;;;;;;;;;;4993104;28;20204;-81
2021/12/31 08:01:24;;;;;;;70.13;53.03;;;;;;;;;;4992557;28;20263;-81
2021/12/31 08:03:52;;;;;;;64.27;51.83;;;;;;;;;;4993133;28;20196;-81
2021/12/31 08:06:20;;;;;;;55.57;42.07;;;;;;;;;;4992671;28;20236;-81
2021/12/31 08:08:47;;;;;;;35.20;27.57;;;;;;;;;;4992819;28;20246;-81
2021/12/31 08:11:15;;;;;;;33.33;28.10;;;;;;;;;;4992983;28;20204;-81
2021/12/31 08:13:42;;;;;;;34.43;27.33;;;;;;;;;;4992785;28;20207;-81
2021/12/31 08:16:11;;;;;;;26.73;20.57;;;;;;;;;;4975428;28;20234;-81
2021/12/31 08:18:40;;;;;;;13.73;12.43;;;;;;;;;;4992956;28;20204;-81
2021/12/31 08:21:07;;;;;;;8.63;7.67;;;;;;;;;;4992319;28;20208;-81
2021/12/31 08:23:35;;;;;;;8.00;7.27;;;;;;;;;;4992737;28;20204;-81
2021/12/31 08:26:05;;;;;;;7.83;6.57;;;;;;;;;;4992608;28;20196;-81
2021/12/31 08:28:32;;;;;;;6.07;5.47;;;;;;;;;;4993186;28;20231;-81
2021/12/31 08:30:59;;;;;;;10.80;9.37;;;;;;;;;;4992681;28;20196;-81
2021/12/31 08:33:30;;;;;;;6.43;5.00;;;;;;;;;;4992275;28;20587;-81
2021/12/31 08:35:58;;;;;;;5.93;5.43;;;;;;;;;;4992738;28;20239;-81
2021/12/31 08:38:25;;;;;;;10.80;9.67;;;;;;;;;;4992462;28;20196;-81
2021/12/31 08:40:54;;;;;;;30.13;23.33;;;;;;;;;;4992803;28;20196;-81
2021/12/31 08:43:22;;;;;;;37.97;31.70;;;;;;;;;;4992283;28;20201;-81
2021/12/31 08:45:49;;;;;;;34.57;27.63;;;;;;;;;;4992022;28;20255;-81
2021/12/31 08:48:16;;;;;;;21.50;19.13;;;;;;;;;;4992368;28;20218;-82
2021/12/31 08:50:45;;;;;;;18.20;16.33;;;;;;;;;;4992376;28;20295;-81
2021/12/31 08:53:13;;;;;;;21.23;18.77;;;;;;;;;;4992289;28;20251;-82
2021/12/31 08:55:42;;;;;;;33.97;28.63;;;;;;;;;;4991098;28;20224;-81
2021/12/31 08:58:09;;;;;;;26.70;23.50;;;;;;;;;;4991899;28;20215;-81
2021/12/31 09:00:38;;;;;;;19.53;17.20;;;;;;;;;;4991993;28;20196;-82
2021/12/31 09:03:05;;;;;;;18.47;16.27;;;;;;;;;;4974655;28;20590;-82
2021/12/31 09:05:33;;;;;;;21.50;18.57;;;;;;;;;;4992504;28;20204;-82
2021/12/31 09:08:02;;;;;;;8.40;7.57;;;;;;;;;;4975201;28;20298;-81
2021/12/31 09:10:29;;;;;;;7.93;5.97;;;;;;;;;;4993085;28;20200;-82
2021/12/31 09:12:57;;;;;;;6.23;5.67;;;;;;;;;;4992946;28;20558;-81
2021/12/31 09:15:25;;;;;;;8.80;6.80;;;;;;;;;;4992857;28;20290;-82
2021/12/31 09:17:54;;;;;;;8.47;7.57;;;;;;;;;;4992858;28;20200;-82
2021/12/31 09:20:22;;;;;;;13.27;11.07;;;;;;;;;;4993086;28;20196;-82
2021/12/31 09:22:49;;;;;;;7.37;5.67;;;;;;;;;;4992788;28;20673;-83
2021/12/31 09:25:18;;;;;;;8.83;7.90;;;;;;;;;;4990958;28;20207;-82
2021/12/31 09:27:45;;;;;;;10.20;7.83;;;;;;;;;;5000657;28;20211;-82
2021/12/31 09:30:13;;;;;;;10.77;9.63;;;;;;;;;;5012295;28;20223;-82
2021/12/31 09:32:41;;;;;;;21.63;17.63;;;;;;;;;;5011675;28;20295;-82
2021/12/31 09:35:09;;;;;;;17.73;14.93;;;;;;;;;;5012238;28;20203;-82
2021/12/31 09:37:37;;;;;;;10.60;9.50;;;;;;;;;;4990847;28;20216;-82
2021/12/31 09:40:05;;;;;;;9.77;8.10;;;;;;;;;;4991877;28;20240;-82
2021/12/31 09:42:36;;;;;;;12.37;11.03;;;;;;;;;;4991791;28;20264;-83
2021/12/31 09:45:04;;;;;;;10.90;9.73;;;;;;;;;;4992801;28;20203;-83
2021/12/31 09:47:32;;;;;;;9.97;8.90;;;;;;;;;;4992189;28;20700;-81
2021/12/31 09:49:59;;;;;;;11.97;9.40;;;;;;;;;;4991685;28;20200;-82
2021/12/31 09:52:28;;;;;;;14.83;11.13;;;;;;;;;;4989562;28;20200;-82
2021/12/31 09:55:06;;;;;;;17.43;12.37;;;;;;;;;;4992339;28;20785;-82
2021/12/31 09:57:34;;;;;;;12.83;11.47;;;;;;;;;;4992346;28;20255;-82
2021/12/31 10:00:03;;;;;;;11.50;10.30;;;;;;;;;;5004153;28;20199;-82
2021/12/31 10:02:33;;;;;;;16.13;12.83;;;;;;;;;;5011870;28;20205;-82
2021/12/31 10:05:02;;;;;;;16.67;12.27;;;;;;;;;;5005965;28;20554;-83
2021/12/31 10:07:30;;;;;;;13.67;11.20;;;;;;;;;;4992127;28;20254;-82
2021/12/31 10:10:10;;;;;;;11.07;9.83;;;;;;;;;;4995793;28;20204;-83
2021/12/31 10:12:53;;;;;;;12.43;10.60;;;;;;;;;;4996367;28;20283;-82
2021/12/31 10:15:24;;;;;;;13.13;11.43;;;;;;;;;;4978462;28;20254;-82
2021/12/31 10:17:52;;;;;;;10.23;9.10;;;;;;;;;;4995872;28;20188;-83
2021/12/31 10:20:20;;;;;;;13.40;11.43;;;;;;;;;;4995427;28;20192;-82
2021/12/31 10:22:48;;;;;;;10.47;9.47;;;;;;;;;;4995888;28;20239;-83
2021/12/31 10:25:20;;;;;;;13.90;12.60;;;;;;;;;;4978505;28;20300;-82
2021/12/31 10:27:47;;;;;;;11.73;10.53;;;;;;;;;;4995888;28;20200;-83
2021/12/31 10:30:22;;;;;;;17.93;15.67;;;;;;;;;;4995513;28;20204;-82
2021/12/31 10:32:51;;;;;;;13.53;11.47;;;;;;;;;;4994768;28;20199;-82
2021/12/31 10:35:20;;;;;;;11.37;10.17;;;;;;;;;;4994709;28;20204;-82
2021/12/31 10:37:48;;;;;;;30.60;23.37;;;;;;;;;;4995691;28;20334;-82
2021/12/31 10:40:31;;;;;;;8.00;7.07;;;;;;;;;;4995617;28;20203;-81
2021/12/31 10:43:15;;;;;;;6.47;5.87;;;;;;;;;;4995921;28;20573;-81
2021/12/31 10:46:00;;;;;;;14.50;12.83;;;;;;;;;;4995628;28;20184;-82
2021/12/31 10:48:46;;;;;;;26.57;19.60;;;;;;;;;;4995361;28;20223;-81
2021/12/31 10:51:14;;;;;;;113.00;64.13;;;;;;;;;;4995318;28;20188;-81
2021/12/31 10:53:50;;;;;;;19.03;12.87;;;;;;;;;;4994865;28;20295;-82
2021/12/31 10:56:18;;;;;;;8.47;6.63;;;;;;;;;;4995200;28;20298;-82
2021/12/31 10:58:46;;;;;;;9.73;7.23;;;;;;;;;;4995266;28;20223;-83
2021/12/31 11:01:17;;;;;;;11.53;10.27;;;;;;;;;;4977609;28;20203;-83
2021/12/31 11:03:44;;;;;;;22.70;18.57;;;;;;;;;;4994585;28;20672;-82
2021/12/31 11:06:13;;;;;;;9.23;7.90;;;;;;;;;;4993329;28;20314;-83
2021/12/31 11:08:44;;;;;;;5.93;5.37;;;;;;;;;;4993924;28;20298;-82
2021/12/31 11:11:11;;;;;;;8.30;6.00;;;;;;;;;;4995094;28;20247;-83
2021/12/31 11:13:39;;;;;;;7.00;5.73;;;;;;;;;;4994829;28;20743;-83
2021/12/31 11:16:06;;;;;;;7.73;7.03;;;;;;;;;;4994755;28;20318;-83
2021/12/31 11:18:35;;;;;;;8.47;7.67;;;;;;;;;;4994479;28;20231;-83
2021/12/31 11:21:04;;;;;;;8.60;6.57;;;;;;;;;;4993927;28;20196;-83
2021/12/31 11:23:32;;;;;;;9.70;8.43;;;;;;;;;;4994624;28;20298;-83
2021/12/31 11:26:01;;;;;;;6.07;5.47;;;;;;;;;;4989382;28;20558;-83
2021/12/31 11:28:30;;;;;;;6.20;5.30;;;;;;;;;;4987295;28;20263;-83
2021/12/31 11:30:58;;;;;;;7.40;5.67;;;;;;;;;;4994555;28;20204;-83
2021/12/31 11:33:30;;;;;;;6.43;5.67;;;;;;;;;;4994414;28;20200;-83
2021/12/31 11:36:02;;;;;;;8.23;7.37;;;;;;;;;;4993876;28;20371;-83
2021/12/31 11:38:48;;;;;;;7.20;6.50;;;;;;;;;;4994179;28;20188;-83
2021/12/31 11:41:20;;;;;;;6.63;5.13;;;;;;;;;;4994375;28;20204;-83
2021/12/31 11:44:05;;;;;;;4.30;3.90;;;;;;;;;;4994490;28;20196;-84
2021/12/31 11:46:34;;;;;;;5.27;4.77;;;;;;;;;;4994220;28;20184;-84
2021/12/31 11:49:03;;;;;;;5.27;4.77;;;;;;;;;;4994287;28;20232;-84
2021/12/31 11:51:34;;;;;;;6.67;5.17;;;;;;;;;;4994362;28;20639;-83
2021/12/31 11:54:20;;;;;;;8.63;7.73;;;;;;;;;;4994412;28;20200;-84
2021/12/31 11:57:13;;;;;;;4.13;3.83;;;;;;;;;;4994452;28;20208;-84
2021/12/31 11:59:58;;;;;;;5.60;4.90;;;;;;;;;;4994292;28;20193;-84
2021/12/31 12:02:40;;;;;;;4.83;4.43;;;;;;;;;;4994235;28;20276;-84
2021/12/31 12:05:14;;;;;;;4.13;3.73;;;;;;;;;;4993765;28;20189;-83
2021/12/31 12:07:46;;;;;;;6.23;5.63;;;;;;;;;;4994084;28;20267;-84
2021/12/31 12:10:21;;;;;;;5.77;5.27;;;;;;;;;;4994258;28;20196;-84
2021/12/31 12:12:52;;;;;;;5.67;5.17;;;;;;;;;;4994153;28;20192;-84
2021/12/31 12:15:36;;;;;;;6.40;4.13;;;;;;;;;;4994081;28;20286;-83
2021/12/31 12:18:06;;;;;;;5.20;4.70;;;;;;;;;;4993791;28;20299;-83
2021/12/31 12:20:35;;;;;;;5.20;4.20;;;;;;;;;;4993400;28;20208;-84
2021/12/31 12:23:12;;;;;;;4.27;3.87;;;;;;;;;;4994156;28;20657;-84
2021/12/31 12:25:40;;;;;;;5.77;5.17;;;;;;;;;;4993834;28;20227;-84
2021/12/31 12:28:11;;;;;;;5.90;5.00;;;;;;;;;;4994102;28;20201;-84
2021/12/31 12:30:43;;;;;;;5.83;5.30;;;;;;;;;;4992767;28;20255;-84
2021/12/31 12:33:17;;;;;;;6.00;4.13;;;;;;;;;;4993395;28;20228;-84
2021/12/31 12:35:46;;;;;;;5.60;4.10;;;;;;;;;;4993648;28;20188;-84
2021/12/31 12:38:19;;;;;;;4.70;4.30;;;;;;;;;;4993566;28;20223;-84
2021/12/31 12:40:49;;;;;;;4.33;3.93;;;;;;;;;;4993810;28;20275;-84
2021/12/31 12:43:18;;;;;;;5.00;4.50;;;;;;;;;;4992436;28;20211;-84
2021/12/31 12:45:47;;;;;;;7.00;5.53;;;;;;;;;;4988920;28;20207;-84
2021/12/31 12:48:14;;;;;;;4.63;4.17;;;;;;;;;;4993151;28;20295;-84
2021/12/31 12:50:49;;;;;;;6.10;5.60;;;;;;;;;;4992358;28;20259;-84
2021/12/31 12:53:23;;;;;;;4.90;4.43;;;;;;;;;;4993236;28;20192;-84
2021/12/31 12:55:51;;;;;;;6.07;5.47;;;;;;;;;;4993165;28;20185;-84
2021/12/31 12:58:22;;;;;;;6.47;5.30;;;;;;;;;;4993009;28;20223;-83
2021/12/31 13:00:55;;;;;;;5.67;5.07;;;;;;;;;;4993105;28;20204;-83
2021/12/31 13:03:23;;;;;;;6.43;4.33;;;;;;;;;;4975348;28;20204;-83
2021/12/31 13:05:50;;;;;;;4.53;4.13;;;;;;;;;;4985571;28;20205;-83
2021/12/31 13:08:18;;;;;;;3.53;3.23;;;;;;;;;;4976335;28;20254;-85
2021/12/31 13:10:49;;;;;;;3.03;2.77;;;;;;;;;;4973610;28;20208;-84
2021/12/31 13:13:17;;;;;;;3.23;2.93;;;;;;;;;;4973561;28;20189;-84
2021/12/31 13:15:44;;;;;;;2.70;2.50;;;;;;;;;;4973748;28;20196;-84
2021/12/31 13:18:12;;;;;;;4.60;3.57;;;;;;;;;;4956140;28;20221;-86
2021/12/31 13:20:40;;;;;;;12.23;9.40;;;;;;;;;;4972185;28;20301;-84
2021/12/31 13:23:09;;;;;;;5.90;5.13;;;;;;;;;;4972615;28;20674;-84
2021/12/31 13:25:41;;;;;;;16.17;12.67;;;;;;;;;;4972546;28;20302;-85
2021/12/31 13:28:15;;;;;;;10.40;8.23;;;;;;;;;;4972448;28;20748;-84
2021/12/31 13:30:54;;;;;;;9.03;6.10;;;;;;;;;;4972595;28;20192;-84
2021/12/31 13:33:25;;;;;;;3.63;2.73;;;;;;;;;;4972143;28;20220;-84
2021/12/31 13:36:16;;;;;;;5.37;3.83;;;;;;;;;;4972113;28;20189;-84
2021/12/31 13:39:00;;;;;;;4.03;3.63;;;;;;;;;;4972504;28;20245;-84
2021/12/31 13:41:28;;;;;;;3.23;2.93;;;;;;;;;;4971808;28;20228;-84
2021/12/31 13:43:58;;;;;;;3.63;2.90;;;;;;;;;;4972266;28;20200;-85
2021/12/31 13:46:33;;;;;;;7.00;4.83;;;;;;;;;;4972324;28;20229;-83
2021/12/31 13:49:07;;;;;;;3.70;3.40;;;;;;;;;;4972511;28;20193;-83
2021/12/31 13:51:36;;;;;;;2.73;2.53;;;;;;;;;;4972018;28;20196;-82
2021/12/31 13:54:05;;;;;;;2.93;2.73;;;;;;;;;;4972443;28;20222;-83
2021/12/31 13:56:34;;;;;;;3.20;2.87;;;;;;;;;;4972216;28;20205;-83
2021/12/31 13:59:19;;;;;;;3.63;3.33;;;;;;;;;;4971740;28;20193;-83
2021/12/31 14:02:10;;;;;;;3.57;3.27;;;;;;;;;;4972166;28;20189;-83
2021/12/31 14:05:02;;;;;;;6.13;5.00;;;;;;;;;;4982869;28;20200;-82
2021/12/31 14:07:36;;;;;;;11.23;7.07;;;;;;;;;;4990050;28;20783;-84
2021/12/31 14:10:07;;;;;;;11.80;8.27;;;;;;;;;;4991671;28;20184;-83
2021/12/31 14:12:45;;;;;;;15.30;13.60;;;;;;;;;;4985833;28;20201;-85
2021/12/31 14:15:14;;;;;;;18.20;16.30;;;;;;;;;;4991256;28;20254;-82
2021/12/31 14:17:42;;;;;;;28.97;22.67;;;;;;;;;;4990852;28;20257;-86
2021/12/31 14:20:10;;;;;;;27.60;18.53;;;;;;;;;;4988710;28;20815;-85
2021/12/31 14:22:38;;;;;;;12.43;11.13;;;;;;;;;;4988421;28;20201;-82
2021/12/31 14:25:06;;;;;;;17.30;14.63;;;;;;;;;;4971322;28;20284;-82
2021/12/31 14:27:34;;;;;;;19.57;15.13;;;;;;;;;;4969770;28;20292;-82
2021/12/31 14:30:01;;;;;;;17.67;14.73;;;;;;;;;;4972091;28;20197;-82
2021/12/31 14:32:30;;;;;;;21.17;18.57;;;;;;;;;;4971762;28;20197;-82
2021/12/31 14:34:58;;;;;;;13.70;11.17;;;;;;;;;;4972130;28;20554;-82
2021/12/31 14:37:25;;;;;;;25.60;23.00;;;;;;;;;;4971949;28;20233;-83
2021/12/31 14:39:55;;;;;;;24.97;22.13;;;;;;;;;;4954006;28;20284;-83
2021/12/31 14:42:26;;;;;;;17.67;15.80;;;;;;;;;;4972035;28;20197;-82
2021/12/31 14:44:54;;;;;;;12.83;11.43;;;;;;;;;;4971720;28;20244;-82
2021/12/31 14:47:21;;;;;;;9.77;8.73;;;;;;;;;;4972092;28;20208;-82
2021/12/31 14:49:50;;;;;;;10.53;8.77;;;;;;;;;;4971583;28;20256;-82
2021/12/31 14:52:17;;;;;;;9.13;8.20;;;;;;;;;;4971023;28;20740;-82